NKS272 MKJS-KFLL
Flight info
| Callsign | NKS272 |
|---|---|
| Flight time | N/A |
| Altitude | 36000 |
| Route | OTUNU UL417 BORDO OLAHS3 |
| Aircraft | A321/M-SDE3FGHIRWY/LB1 |
Departure
| Time | 2026-05-03 20:30 |
|---|---|
| Airport | Sangster International Airport (MKJS) |
Arrival
| Time | N/A |
|---|---|
| Airport | Fort Lauderdale Hollywood International Airport (KFLL) |
| Time | Latitude | Longitude | Altitude | Speed | Heading |
|---|---|---|---|---|---|
| 2026-05-03 20:15 | 18.50011 | -77.91372 | 47 ft | 0 kts | 181° |
| 2026-05-03 20:23 | 18.50019 | -77.91372 | 31 ft | 3 kts | 182° |
| 2026-05-03 20:23 | 18.50040 | -77.91371 | 34 ft | 3 kts | 183° |
| 2026-05-03 20:23 | 18.50060 | -77.91370 | 30 ft | 3 kts | 186° |
| 2026-05-03 20:23 | 18.50080 | -77.91367 | 31 ft | 3 kts | 195° |
| 2026-05-03 20:24 | 18.50098 | -77.91360 | 32 ft | 3 kts | 217° |
| 2026-05-03 20:24 | 18.50108 | -77.91349 | 33 ft | 0 kts | 246° |
| 2026-05-03 20:26 | 18.50101 | -77.91366 | 34 ft | 5 kts | 246° |
| 2026-05-03 20:26 | 18.50085 | -77.91403 | 35 ft | 7 kts | 246° |
| 2026-05-03 20:26 | 18.50057 | -77.91470 | 39 ft | 12 kts | 246° |
| 2026-05-03 20:27 | 18.50031 | -77.91551 | 37 ft | 10 kts | 287° |
| 2026-05-03 20:27 | 18.50063 | -77.91617 | 38 ft | 12 kts | 258° |
| 2026-05-03 20:27 | 18.50024 | -77.91719 | 32 ft | 16 kts | 246° |
| 2026-05-03 20:27 | 18.49976 | -77.91831 | 35 ft | 17 kts | 245° |
| 2026-05-03 20:28 | 18.49922 | -77.91950 | 33 ft | 19 kts | 246° |
| 2026-05-03 20:28 | 18.49866 | -77.92079 | 34 ft | 20 kts | 244° |
| 2026-05-03 20:28 | 18.49801 | -77.92212 | 33 ft | 21 kts | 242° |
| 2026-05-03 20:28 | 18.49748 | -77.92343 | 34 ft | 14 kts | 250° |
| 2026-05-03 20:29 | 18.49791 | -77.92423 | 37 ft | 15 kts | 333° |
| 2026-05-03 20:29 | 18.49869 | -77.92455 | 39 ft | 7 kts | 357° |
| 2026-05-03 20:29 | 18.49902 | -77.92410 | 36 ft | 13 kts | 64° |
| 2026-05-03 20:29 | 18.50039 | -77.92093 | 39 ft | 85 kts | 65° |
| 2026-05-03 20:30 | 18.50380 | -77.91308 | 38 ft | 147 kts | 65° |
| 2026-05-03 20:30 | 18.50852 | -77.90220 | 383 ft | 165 kts | 67° |
| 2026-05-03 20:30 | 18.51410 | -77.89210 | 1263 ft | 159 kts | 58° |
| 2026-05-03 20:30 | 18.52112 | -77.88214 | 1520 ft | 179 kts | 52° |
| 2026-05-03 20:31 | 18.52950 | -77.87155 | 1689 ft | 198 kts | 44° |
| 2026-05-03 20:31 | 18.54206 | -77.86427 | 1793 ft | 222 kts | 14° |
| 2026-05-03 20:31 | 18.55845 | -77.86530 | 1892 ft | 255 kts | 342° |
| 2026-05-03 20:31 | 18.57345 | -77.87602 | 2512 ft | 269 kts | 316° |
| 2026-05-03 20:32 | 18.58507 | -77.89189 | 3299 ft | 274 kts | 303° |
| 2026-05-03 20:32 | 18.59537 | -77.90926 | 4014 ft | 280 kts | 301° |